Terminal Aerodrome Forecast
Issued by NWS Grand Junction, CO

Home | Current Version | Previous Version | Text Only | Print | Product List | Glossary On
Versions: 1 2 3 4 5 6 7 8 9 10 11 12 13 14 15 16 17 18 19 20
000
FTUS45 KGJT 291136 AAC
TAFGJT
TAF AMD
KGJT 291136Z 2912/3012 01005KT P6SM SCT030 BKN100
     FM291400 14005KT P6SM VCSH BKN110
     FM291800 29007KT P6SM VCSH BKN090
     FM292000 29008KT P6SM BKN110
     FM292300 32007KT P6SM BKN100
     FM300500 14004KT P6SM BKN090=

USA.gov is the U.S. government's official web portal to all federal, state and local government web resources and services.